Time;durP1;ratioP1;P1;durP2;ratioP2;P2;SDS_P1;SDS_P2;PMS_P1;PMS_P2;Temp;Humidity;BMP_temperature;BMP_pressure;BME280_temperature;BME280_humidity;BME280_pressure;Samples;Min_cycle;Max_cycle;Signal;HPM_P1;HPM_P2
2022/07/03 00:01:10;;;;;;;5.32;2.47;;;;;;;;;;5056001;28;20117;-85
2022/07/03 00:03:38;;;;;;;6.97;2.63;;;;;;;;;;5043227;28;20127;-85
2022/07/03 00:06:05;;;;;;;6.43;2.72;;;;;;;;;;5055502;28;20064;-85
2022/07/03 00:08:30;;;;;;;7.47;2.75;;;;;;;;;;5056980;28;20051;-84
2022/07/03 00:10:57;;;;;;;5.45;2.58;;;;;;;;;;5052948;28;20411;-84
2022/07/03 00:13:23;;;;;;;5.82;2.65;;;;;;;;;;5054844;28;20498;-85
2022/07/03 00:15:49;;;;;;;7.38;2.80;;;;;;;;;;5039074;28;20574;-85
2022/07/03 00:18:17;;;;;;;6.18;2.88;;;;;;;;;;5055288;28;20120;-86
2022/07/03 00:20:48;;;;;;;7.78;2.72;;;;;;;;;;5056448;28;20578;-86
2022/07/03 00:23:16;;;;;;;7.07;2.88;;;;;;;;;;5037178;28;20072;-86
2022/07/03 00:25:42;;;;;;;6.18;3.10;;;;;;;;;;5037626;28;20040;-86
2022/07/03 00:28:08;;;;;;;8.55;3.15;;;;;;;;;;5035227;28;20045;-86
2022/07/03 00:30:35;;;;;;;7.80;3.15;;;;;;;;;;5037005;28;20077;-86
2022/07/03 00:33:03;;;;;;;6.97;2.88;;;;;;;;;;5066863;28;20128;-86
2022/07/03 00:35:31;;;;;;;5.57;2.60;;;;;;;;;;5055412;28;20053;-86
2022/07/03 00:37:57;;;;;;;9.55;3.17;;;;;;;;;;5056331;28;20049;-86
2022/07/03 00:40:23;;;;;;;6.13;2.88;;;;;;;;;;5040230;28;20438;-86
2022/07/03 00:42:51;;;;;;;7.75;3.13;;;;;;;;;;5036293;28;20057;-86
2022/07/03 00:45:19;;;;;;;6.65;3.30;;;;;;;;;;5050668;28;20075;-87
2022/07/03 00:47:45;;;;;;;9.52;3.30;;;;;;;;;;5037137;28;20060;-86
2022/07/03 00:50:12;;;;;;;9.57;3.35;;;;;;;;;;5052941;28;20102;-85
2022/07/03 00:52:39;;;;;;;8.68;3.10;;;;;;;;;;5055182;28;20098;-85
2022/07/03 00:55:14;;;;;;;6.97;2.90;;;;;;;;;;5056075;28;20041;-86
2022/07/03 00:57:44;;;;;;;6.97;2.90;;;;;;;;;;5053421;28;20123;-85
2022/07/03 01:00:10;;;;;;;7.45;3.05;;;;;;;;;;5049595;28;20045;-86
2022/07/03 01:02:52;;;;;;;8.27;3.20;;;;;;;;;;5047655;28;20107;-85
2022/07/03 01:05:30;;;;;;;10.13;3.17;;;;;;;;;;5053767;28;20110;-85
2022/07/03 01:08:15;;;;;;;7.32;3.33;;;;;;;;;;5055903;28;20045;-84
2022/07/03 01:10:41;;;;;;;6.68;2.83;;;;;;;;;;5055598;28;20041;-85
2022/07/03 01:13:14;;;;;;;8.50;3.20;;;;;;;;;;5037370;28;20047;-86
2022/07/03 01:16:12;;;;;;;7.70;3.40;;;;;;;;;;5051917;28;20090;-86
2022/07/03 01:18:46;;;;;;;7.38;3.40;;;;;;;;;;5011330;28;20049;-86
2022/07/03 01:21:15;;;;;;;6.95;3.35;;;;;;;;;;5054853;28;20059;-86
2022/07/03 01:23:41;;;;;;;7.30;3.65;;;;;;;;;;5052844;28;20553;-86
2022/07/03 01:26:08;;;;;;;9.00;3.53;;;;;;;;;;5056300;28;20044;-86
2022/07/03 01:28:36;;;;;;;5.90;3.38;;;;;;;;;;5048790;28;20049;-87
2022/07/03 01:31:02;;;;;;;7.38;3.50;;;;;;;;;;5050622;28;20496;-87
2022/07/03 01:33:32;;;;;;;5.57;3.40;;;;;;;;;;5066041;28;20122;-87
2022/07/03 01:36:01;;;;;;;9.95;3.38;;;;;;;;;;5055703;28;20483;-87
2022/07/03 01:38:28;;;;;;;7.60;3.40;;;;;;;;;;5054951;28;20048;-86
2022/07/03 01:40:55;;;;;;;8.07;3.40;;;;;;;;;;5054911;28;20495;-86
2022/07/03 01:43:26;;;;;;;6.20;3.47;;;;;;;;;;5053786;28;20067;-86
2022/07/03 01:45:56;;;;;;;9.18;3.33;;;;;;;;;;5054987;28;20052;-86
2022/07/03 01:48:23;;;;;;;7.78;3.67;;;;;;;;;;5035746;28;20071;-86
2022/07/03 01:50:50;;;;;;;6.30;3.67;;;;;;;;;;5055208;28;20491;-86
2022/07/03 01:53:16;;;;;;;8.07;3.50;;;;;;;;;;5036773;28;20036;-87
2022/07/03 01:55:43;;;;;;;6.43;3.50;;;;;;;;;;5052917;28;20134;-87
2022/07/03 01:58:10;;;;;;;6.82;3.22;;;;;;;;;;5052068;28;20049;-85
2022/07/03 02:00:58;;;;;;;7.22;3.15;;;;;;;;;;5039414;28;20083;-85
2022/07/03 02:03:28;;;;;;;6.18;3.50;;;;;;;;;;5035467;28;20053;-85
2022/07/03 02:06:12;;;;;;;5.97;3.28;;;;;;;;;;5054816;28;20052;-86
2022/07/03 02:08:54;;;;;;;8.05;3.50;;;;;;;;;;5053213;28;20045;-87
2022/07/03 02:11:22;;;;;;;6.38;3.08;;;;;;;;;;5053345;28;20045;-87
2022/07/03 02:13:56;;;;;;;9.13;3.17;;;;;;;;;;5035149;28;20143;-87
2022/07/03 02:16:23;;;;;;;7.93;3.72;;;;;;;;;;5054722;28;20053;-87
2022/07/03 02:19:03;;;;;;;9.40;3.72;;;;;;;;;;5053678;28;20041;-84
2022/07/03 02:21:30;;;;;;;6.70;3.53;;;;;;;;;;5032979;28;20041;-87
2022/07/03 02:24:14;;;;;;;7.32;3.70;;;;;;;;;;5055404;28;20454;-86
2022/07/03 02:26:42;;;;;;;6.57;4.05;;;;;;;;;;5035947;28;20041;-86
2022/07/03 02:29:13;;;;;;;7.13;3.80;;;;;;;;;;5055257;28;20114;-86
2022/07/03 02:31:46;;;;;;;8.23;4.22;;;;;;;;;;5055918;28;20041;-87
2022/07/03 02:34:15;;;;;;;8.70;3.92;;;;;;;;;;5052750;28;20052;-86
2022/07/03 02:36:43;;;;;;;10.10;4.35;;;;;;;;;;5052890;28;20535;-86
2022/07/03 02:39:15;;;;;;;7.93;4.80;;;;;;;;;;5035927;28;20392;-86
2022/07/03 02:41:46;;;;;;;7.25;4.40;;;;;;;;;;5054043;28;20120;-86
2022/07/03 02:44:32;;;;;;;7.65;4.90;;;;;;;;;;5032793;28;20056;-85
2022/07/03 02:46:58;;;;;;;7.88;4.85;;;;;;;;;;5049539;28;20067;-86
2022/07/03 02:49:48;;;;;;;7.57;4.50;;;;;;;;;;5053812;28;20427;-86
2022/07/03 02:52:32;;;;;;;10.77;5.45;;;;;;;;;;5032688;28;20045;-86
2022/07/03 02:55:17;;;;;;;7.22;4.38;;;;;;;;;;5033299;28;20072;-86
2022/07/03 02:57:43;;;;;;;8.18;3.97;;;;;;;;;;5044530;28;20041;-85
2022/07/03 03:00:11;;;;;;;8.50;4.60;;;;;;;;;;5050943;28;20099;-87
2022/07/03 03:02:53;;;;;;;9.32;4.68;;;;;;;;;;5034455;28;20048;-86
2022/07/03 03:05:19;;;;;;;10.52;4.60;;;;;;;;;;5052226;28;20065;-86
2022/07/03 03:08:04;;;;;;;7.88;4.68;;;;;;;;;;5053091;28;20048;-86
2022/07/03 03:10:33;;;;;;;7.30;4.95;;;;;;;;;;5033751;28;20499;-86
2022/07/03 03:13:07;;;;;;;7.40;4.78;;;;;;;;;;5042053;28;20045;-86
2022/07/03 03:15:34;;;;;;;7.63;4.80;;;;;;;;;;5035689;28;20045;-86
2022/07/03 03:18:02;;;;;;;7.22;4.95;;;;;;;;;;5036221;28;20040;-85
2022/07/03 03:20:30;;;;;;;6.97;4.72;;;;;;;;;;5055774;28;20033;-85
2022/07/03 03:23:15;;;;;;;9.15;4.45;;;;;;;;;;5076320;28;20049;-86
2022/07/03 03:25:41;;;;;;;7.88;4.88;;;;;;;;;;5076978;28;20060;-85
2022/07/03 03:28:08;;;;;;;10.00;4.78;;;;;;;;;;5097153;28;20024;-86
2022/07/03 03:30:35;;;;;;;7.22;4.40;;;;;;;;;;5069350;28;20029;-86
2022/07/03 03:33:01;;;;;;;11.13;4.88;;;;;;;;;;5063306;28;20185;-86
2022/07/03 03:35:28;;;;;;;8.60;4.90;;;;;;;;;;5058195;28;20076;-85
2022/07/03 03:37:54;;;;;;;7.38;4.43;;;;;;;;;;5076791;28;20096;-86
2022/07/03 03:40:20;;;;;;;9.93;4.70;;;;;;;;;;5076532;28;20056;-85
2022/07/03 03:42:46;;;;;;;8.07;4.75;;;;;;;;;;5060256;28;20033;-85
2022/07/03 03:45:12;;;;;;;7.72;4.70;;;;;;;;;;5075227;28;20074;-86
2022/07/03 03:47:38;;;;;;;7.00;4.68;;;;;;;;;;5062508;28;20403;-87
2022/07/03 03:50:05;;;;;;;9.45;4.70;;;;;;;;;;5052811;28;20067;-87
2022/07/03 03:52:31;;;;;;;7.03;4.43;;;;;;;;;;5053585;28;20044;-87
2022/07/03 03:54:57;;;;;;;7.72;3.90;;;;;;;;;;5031114;28;20057;-87
2022/07/03 03:57:24;;;;;;;7.82;3.70;;;;;;;;;;5050070;28;20045;-87
2022/07/03 03:59:53;;;;;;;6.40;3.60;;;;;;;;;;5048147;28;20060;-87
2022/07/03 04:02:19;;;;;;;9.00;4.50;;;;;;;;;;5052546;28;20049;-86
2022/07/03 04:04:45;;;;;;;6.65;3.47;;;;;;;;;;5052484;28;20057;-87
2022/07/03 04:07:12;;;;;;;7.80;3.35;;;;;;;;;;5052406;28;20103;-86
2022/07/03 04:09:38;;;;;;;6.53;3.42;;;;;;;;;;5053113;28;20052;-86
2022/07/03 04:12:04;;;;;;;10.13;3.40;;;;;;;;;;5051430;28;20041;-87
2022/07/03 04:14:31;;;;;;;6.15;2.92;;;;;;;;;;5050648;28;20075;-86
2022/07/03 04:16:57;;;;;;;8.60;4.00;;;;;;;;;;5035038;28;20049;-86
2022/07/03 04:19:23;;;;;;;5.90;3.90;;;;;;;;;;5039856;28;20132;-87
2022/07/03 04:21:51;;;;;;;5.82;3.88;;;;;;;;;;5050124;28;20128;-87
2022/07/03 04:24:17;;;;;;;8.85;3.78;;;;;;;;;;5072025;28;20094;-87
2022/07/03 04:26:43;;;;;;;7.13;3.92;;;;;;;;;;5051633;28;20419;-86
2022/07/03 04:29:09;;;;;;;8.00;3.70;;;;;;;;;;5054286;28;20551;-87
2022/07/03 04:31:35;;;;;;;7.95;3.90;;;;;;;;;;5056344;28;20487;-87
2022/07/03 04:34:01;;;;;;;7.57;3.75;;;;;;;;;;5054044;28;20036;-87
2022/07/03 04:36:28;;;;;;;8.00;3.85;;;;;;;;;;5056004;28;20049;-87
2022/07/03 04:38:54;;;;;;;7.35;3.70;;;;;;;;;;5056564;28;20056;-87
2022/07/03 04:41:20;;;;;;;8.15;3.78;;;;;;;;;;5053896;28;20120;-87
2022/07/03 04:43:46;;;;;;;5.90;3.75;;;;;;;;;;5054319;28;20132;-87
2022/07/03 04:46:12;;;;;;;7.97;3.85;;;;;;;;;;5056112;28;20041;-87
2022/07/03 04:48:38;;;;;;;7.20;3.85;;;;;;;;;;5021429;28;20041;-86
2022/07/03 04:51:04;;;;;;;8.68;4.78;;;;;;;;;;5054153;28;20041;-87
2022/07/03 04:53:30;;;;;;;7.75;4.47;;;;;;;;;;5054815;28;20045;-86
2022/07/03 04:55:56;;;;;;;8.18;4.68;;;;;;;;;;5036995;28;20491;-86
2022/07/03 04:58:22;;;;;;;9.60;4.45;;;;;;;;;;5037331;28;20107;-86
2022/07/03 05:00:48;;;;;;;7.38;4.40;;;;;;;;;;5037628;28;20049;-86
2022/07/03 05:03:14;;;;;;;9.90;4.32;;;;;;;;;;5052414;28;20120;-88
2022/07/03 05:05:40;;;;;;;7.30;4.75;;;;;;;;;;5055679;28;20132;-87
2022/07/03 05:08:07;;;;;;;7.28;4.57;;;;;;;;;;5055247;28;20041;-87
2022/07/03 05:10:32;;;;;;;7.55;4.50;;;;;;;;;;5056002;28;20498;-87
2022/07/03 05:12:59;;;;;;;10.10;4.72;;;;;;;;;;5052719;28;20041;-86
2022/07/03 05:15:25;;;;;;;6.82;4.30;;;;;;;;;;5051927;28;20406;-87
2022/07/03 05:17:53;;;;;;;9.68;4.78;;;;;;;;;;5054485;28;20395;-87
2022/07/03 05:20:28;;;;;;;8.52;4.90;;;;;;;;;;5036943;28;20116;-87
2022/07/03 05:23:03;;;;;;;7.57;4.72;;;;;;;;;;5075876;28;20101;-86
2022/07/03 05:25:30;;;;;;;7.32;4.88;;;;;;;;;;5065968;28;20048;-86
2022/07/03 05:27:56;;;;;;;9.25;4.60;;;;;;;;;;5054198;28;20041;-87
2022/07/03 05:30:23;;;;;;;7.97;4.65;;;;;;;;;;5054200;28;20499;-87
2022/07/03 05:32:49;;;;;;;8.35;4.80;;;;;;;;;;5054318;28;20129;-87
2022/07/03 05:35:15;;;;;;;7.85;4.20;;;;;;;;;;5054884;28;20045;-87
2022/07/03 05:37:42;;;;;;;7.90;4.50;;;;;;;;;;5035526;28;20143;-87
2022/07/03 05:40:08;;;;;;;8.25;4.10;;;;;;;;;;5051728;28;20437;-87
2022/07/03 05:42:34;;;;;;;6.05;3.80;;;;;;;;;;5054538;28;20406;-87
2022/07/03 05:45:01;;;;;;;7.45;3.90;;;;;;;;;;5034226;28;20037;-87
2022/07/03 05:47:27;;;;;;;7.32;3.88;;;;;;;;;;5036627;28;20061;-85
2022/07/03 05:49:53;;;;;;;6.22;3.45;;;;;;;;;;5034879;28;20033;-86
2022/07/03 05:52:19;;;;;;;8.05;3.35;;;;;;;;;;5072994;28;20045;-86
2022/07/03 05:54:45;;;;;;;6.13;3.35;;;;;;;;;;5073026;28;20052;-85
2022/07/03 05:57:12;;;;;;;6.88;3.40;;;;;;;;;;5036965;28;20037;-85
2022/07/03 05:59:38;;;;;;;5.07;2.90;;;;;;;;;;5061978;28;20052;-86
2022/07/03 06:02:04;;;;;;;5.85;2.95;;;;;;;;;;5054581;28;20041;-85
2022/07/03 06:04:30;;;;;;;7.25;2.88;;;;;;;;;;5058608;28;20752;-86
2022/07/03 06:06:56;;;;;;;6.13;2.85;;;;;;;;;;5050152;28;20044;-86
2022/07/03 06:09:23;;;;;;;5.32;2.75;;;;;;;;;;5053475;28;20565;-87
2022/07/03 06:11:49;;;;;;;7.22;3.10;;;;;;;;;;5052681;28;20049;-87
2022/07/03 06:14:15;;;;;;;5.45;2.75;;;;;;;;;;5051712;28;20492;-85
2022/07/03 06:16:41;;;;;;;6.32;3.38;;;;;;;;;;5053588;28;20044;-86
2022/07/03 06:19:07;;;;;;;7.72;2.95;;;;;;;;;;5055017;28;20087;-86
2022/07/03 06:21:34;;;;;;;9.10;3.20;;;;;;;;;;5054073;28;20098;-86
2022/07/03 06:24:00;;;;;;;7.05;2.80;;;;;;;;;;5054319;28;20496;-87
2022/07/03 06:26:26;;;;;;;5.78;2.33;;;;;;;;;;5066129;28;20044;-86
2022/07/03 06:28:55;;;;;;;4.95;2.20;;;;;;;;;;5051600;28;20152;-84
2022/07/03 06:31:24;;;;;;;4.45;2.10;;;;;;;;;;5037744;28;20033;-84
2022/07/03 06:33:50;;;;;;;4.95;2.13;;;;;;;;;;5021600;28;20044;-85
2022/07/03 06:36:16;;;;;;;5.60;2.10;;;;;;;;;;5055449;28;20075;-83
2022/07/03 06:38:42;;;;;;;5.55;1.98;;;;;;;;;;5059884;28;20164;-84
2022/07/03 06:41:08;;;;;;;6.25;2.17;;;;;;;;;;5055335;28;20086;-84
2022/07/03 06:43:34;;;;;;;7.13;2.15;;;;;;;;;;5042057;28;20037;-83
2022/07/03 06:46:00;;;;;;;4.85;2.08;;;;;;;;;;5059540;28;20055;-85
2022/07/03 06:48:26;;;;;;;4.10;1.70;;;;;;;;;;5015095;28;20051;-84
2022/07/03 06:50:52;;;;;;;5.38;1.48;;;;;;;;;;5050208;28;20415;-83
2022/07/03 06:53:18;;;;;;;6.97;1.25;;;;;;;;;;5058738;28;20411;-84
2022/07/03 06:55:44;;;;;;;3.97;1.30;;;;;;;;;;5059136;28;20057;-85
2022/07/03 06:58:11;;;;;;;5.15;1.27;;;;;;;;;;5059880;28;20056;-91
2022/07/03 07:00:38;;;;;;;4.97;1.20;;;;;;;;;;5077713;28;20079;-86
2022/07/03 07:03:04;;;;;;;5.50;1.00;;;;;;;;;;5075120;28;20052;-85
2022/07/03 07:05:30;;;;;;;7.10;1.40;;;;;;;;;;5077821;28;20029;-86
2022/07/03 07:07:56;;;;;;;5.45;1.20;;;;;;;;;;5077082;28;20151;-86
2022/07/03 07:10:22;;;;;;;4.20;1.10;;;;;;;;;;5069593;28;20155;-85
2022/07/03 07:12:49;;;;;;;4.05;1.00;;;;;;;;;;5066105;28;20041;-86
2022/07/03 07:15:15;;;;;;;2.25;0.80;;;;;;;;;;5076227;28;20092;-87
2022/07/03 07:17:41;;;;;;;3.92;1.10;;;;;;;;;;5025999;28;20120;-85
2022/07/03 07:20:07;;;;;;;3.45;1.00;;;;;;;;;;5042581;28;20049;-86
2022/07/03 07:22:34;;;;;;;8.27;1.35;;;;;;;;;;5059104;28;20055;-86
2022/07/03 07:25:01;;;;;;;4.97;1.20;;;;;;;;;;5027921;28;20127;-86
2022/07/03 07:27:27;;;;;;;4.75;0.98;;;;;;;;;;5056946;28;20783;-86
2022/07/03 07:29:53;;;;;;;4.25;0.98;;;;;;;;;;5058266;28;20053;-86
2022/07/03 07:32:19;;;;;;;3.85;1.10;;;;;;;;;;5060928;28;20041;-87
2022/07/03 07:34:45;;;;;;;5.28;1.00;;;;;;;;;;5062916;28;20049;-87
2022/07/03 07:37:11;;;;;;;4.25;0.93;;;;;;;;;;5057305;28;20045;-87
2022/07/03 07:39:37;;;;;;;6.00;0.98;;;;;;;;;;5060432;28;20045;-87
2022/07/03 07:42:03;;;;;;;4.85;1.20;;;;;;;;;;5059234;28;20084;-86
2022/07/03 07:44:29;;;;;;;4.68;1.25;;;;;;;;;;5044623;28;20091;-87
2022/07/03 07:46:55;;;;;;;3.70;1.10;;;;;;;;;;5058199;28;20041;-87
2022/07/03 07:49:21;;;;;;;6.00;1.20;;;;;;;;;;5056987;28;20048;-87
2022/07/03 07:51:48;;;;;;;4.85;1.30;;;;;;;;;;5050043;28;20064;-87
2022/07/03 07:54:16;;;;;;;6.05;1.30;;;;;;;;;;5059624;28;20584;-87
2022/07/03 07:56:42;;;;;;;5.22;1.15;;;;;;;;;;5055987;28;20041;-87
2022/07/03 07:59:08;;;;;;;6.57;1.15;;;;;;;;;;5053935;28;20044;-86
2022/07/03 08:07:04;;;;;;;4.88;1.05;;;;;;;;;;5035971;28;20055;-86
2022/07/03 08:09:30;;;;;;;3.55;1.13;;;;;;;;;;5066990;28;20057;-86
2022/07/03 08:11:56;;;;;;;4.78;1.13;;;;;;;;;;5057333;28;20087;-86
2022/07/03 08:14:22;;;;;;;4.28;1.05;;;;;;;;;;5056167;28;20055;-86
2022/07/03 08:16:49;;;;;;;5.68;1.02;;;;;;;;;;5059944;28;20052;-86
2022/07/03 08:19:15;;;;;;;4.03;1.10;;;;;;;;;;5044376;28;20104;-85
2022/07/03 08:21:42;;;;;;;4.65;1.10;;;;;;;;;;5041487;28;20107;-86
2022/07/03 08:24:18;;;;;;;;;;;;;;;;;;;;;
2022/07/03 08:26:45;;;;;;;4.25;1.20;;;;;;;;;;5058221;28;20075;-86
2022/07/03 08:29:11;;;;;;;4.22;1.08;;;;;;;;;;5058847;28;20064;-86
2022/07/03 08:31:37;;;;;;;4.50;1.08;;;;;;;;;;5064246;28;20051;-86
2022/07/03 08:34:03;;;;;;;8.73;1.48;;;;;;;;;;5061625;28;20103;-89
2022/07/03 08:36:29;;;;;;;3.95;1.20;;;;;;;;;;5058059;28;20072;-88
2022/07/03 08:38:56;;;;;;;5.55;1.25;;;;;;;;;;5056520;28;20049;-86
2022/07/03 08:41:23;;;;;;;6.78;1.42;;;;;;;;;;5041783;28;20057;-89
2022/07/03 08:43:53;;;;;;;5.80;1.45;;;;;;;;;;5060435;28;20045;-87
2022/07/03 08:46:19;;;;;;;3.63;1.10;;;;;;;;;;5059534;28;20037;-87
2022/07/03 08:48:46;;;;;;;5.95;1.17;;;;;;;;;;5055238;28;20300;-87
2022/07/03 08:51:12;;;;;;;4.35;1.13;;;;;;;;;;5056711;28;20044;-87
2022/07/03 08:53:39;;;;;;;6.15;1.33;;;;;;;;;;5036571;28;20487;-87
2022/07/03 08:56:05;;;;;;;3.80;1.13;;;;;;;;;;5038899;28;20052;-87
2022/07/03 08:58:32;;;;;;;5.30;1.30;;;;;;;;;;5050496;28;20041;-88
2022/07/03 09:00:58;;;;;;;5.63;1.20;;;;;;;;;;5058770;28;20067;-87
2022/07/03 09:03:28;;;;;;;5.32;1.40;;;;;;;;;;5058771;28;20048;-89
2022/07/03 09:05:54;;;;;;;5.63;1.20;;;;;;;;;;5063261;28;20445;-87
2022/07/03 09:08:21;;;;;;;4.03;1.10;;;;;;;;;;5037035;28;20045;-89
2022/07/03 09:10:47;;;;;;;4.38;1.40;;;;;;;;;;5043084;28;20044;-89
2022/07/03 09:13:13;;;;;;;5.65;1.50;;;;;;;;;;5036356;28;20046;-88
2022/07/03 09:15:39;;;;;;;5.95;1.50;;;;;;;;;;5058331;28;20184;-87
2022/07/03 09:18:06;;;;;;;5.50;1.50;;;;;;;;;;5044341;28;20080;-88
2022/07/03 09:20:34;;;;;;;8.45;1.92;;;;;;;;;;5057583;28;20049;-88
2022/07/03 09:23:29;;;;;;;4.70;1.40;;;;;;;;;;5059145;28;20052;-86
2022/07/03 09:26:02;;;;;;;5.00;1.50;;;;;;;;;;5042423;28;20107;-86
2022/07/03 09:28:44;;;;;;;6.60;1.73;;;;;;;;;;5055896;28;20119;-86
2022/07/03 09:31:12;;;;;;;5.95;1.63;;;;;;;;;;5038662;28;20045;-86
2022/07/03 09:33:58;;;;;;;6.95;1.60;;;;;;;;;;5061376;28;20048;-86
2022/07/03 09:36:45;;;;;;;6.20;1.50;;;;;;;;;;5040634;28;20059;-88
2022/07/03 09:39:17;;;;;;;5.10;1.70;;;;;;;;;;5048836;28;20041;-87
2022/07/03 09:42:02;;;;;;;7.93;1.70;;;;;;;;;;5064312;28;20068;-87
2022/07/03 09:44:33;;;;;;;4.85;1.60;;;;;;;;;;5038463;28;20071;-87
2022/07/03 09:47:08;;;;;;;5.10;1.55;;;;;;;;;;5043579;28;20098;-87
2022/07/03 09:49:46;;;;;;;5.85;1.50;;;;;;;;;;5064790;28;20045;-86
2022/07/03 09:52:34;;;;;;;3.95;1.38;;;;;;;;;;5076584;28;20067;-85
2022/07/03 09:55:21;;;;;;;3.83;1.25;;;;;;;;;;5060064;28;20053;-86
2022/07/03 09:57:49;;;;;;;5.63;1.25;;;;;;;;;;5081969;28;20106;-86
2022/07/03 10:00:17;;;;;;;4.63;1.27;;;;;;;;;;5063695;28;20040;-87
2022/07/03 10:02:56;;;;;;;6.60;1.45;;;;;;;;;;5055101;28;20080;-85
2022/07/03 10:05:23;;;;;;;3.75;1.23;;;;;;;;;;5060516;28;20048;-87
2022/07/03 10:07:50;;;;;;;5.28;1.40;;;;;;;;;;5044994;28;20059;-85
2022/07/03 10:10:17;;;;;;;5.22;1.00;;;;;;;;;;5097904;28;20020;-88
2022/07/03 10:12:46;;;;;;;4.20;1.15;;;;;;;;;;5095992;28;20056;-87
2022/07/03 10:15:13;;;;;;;4.45;1.27;;;;;;;;;;5059823;28;20029;-87
2022/07/03 10:17:39;;;;;;;5.10;1.13;;;;;;;;;;5059643;28;20040;-87
2022/07/03 10:20:05;;;;;;;7.90;1.33;;;;;;;;;;5045618;28;20068;-87
2022/07/03 10:22:35;;;;;;;5.03;1.20;;;;;;;;;;5048614;28;20580;-88
2022/07/03 10:25:02;;;;;;;4.13;1.23;;;;;;;;;;5062374;28;20055;-85
2022/07/03 10:27:30;;;;;;;10.27;1.10;;;;;;;;;;5024949;28;20131;-87
2022/07/03 10:29:59;;;;;;;4.22;1.25;;;;;;;;;;5059034;28;20123;-84
2022/07/03 10:32:27;;;;;;;3.13;0.90;;;;;;;;;;5054571;28;20041;-85
2022/07/03 10:34:53;;;;;;;4.93;1.15;;;;;;;;;;5056070;28;20419;-86
2022/07/03 10:37:21;;;;;;;4.10;1.05;;;;;;;;;;5057230;28;20508;-87
2022/07/03 10:39:53;;;;;;;3.67;0.90;;;;;;;;;;5046740;28;20053;-86
2022/07/03 10:45:13;;;;;;;4.82;0.98;;;;;;;;;;5041009;28;20412;-87
2022/07/03 10:47:40;;;;;;;3.55;0.73;;;;;;;;;;5053888;28;20087;-87
2022/07/03 10:50:11;;;;;;;3.78;0.80;;;;;;;;;;5053909;28;20126;-86
2022/07/03 10:52:37;;;;;;;4.32;1.00;;;;;;;;;;5038178;28;20056;-86
2022/07/03 10:55:06;;;;;;;3.63;1.05;;;;;;;;;;5056393;28;20064;-87
2022/07/03 10:57:32;;;;;;;4.45;0.80;;;;;;;;;;5037226;28;20399;-87
2022/07/03 11:00:00;;;;;;;3.95;0.90;;;;;;;;;;5055635;28;20049;-87
2022/07/03 11:02:32;;;;;;;4.82;0.90;;;;;;;;;;5036814;28;20044;-88
2022/07/03 11:05:04;;;;;;;3.40;0.95;;;;;;;;;;5054410;28;20092;-86
2022/07/03 11:07:34;;;;;;;4.20;1.02;;;;;;;;;;5040772;28;20041;-89
2022/07/03 11:10:06;;;;;;;3.08;0.90;;;;;;;;;;5051214;28;20052;-86
2022/07/03 11:12:51;;;;;;;5.40;0.93;;;;;;;;;;5039916;28;20564;-85
2022/07/03 11:15:39;;;;;;;5.25;0.98;;;;;;;;;;5059024;28;20048;-88
2022/07/03 11:18:18;;;;;;;3.30;0.70;;;;;;;;;;5056479;28;20044;-88
2022/07/03 11:20:44;;;;;;;2.47;0.55;;;;;;;;;;5055361;28;20060;-85
2022/07/03 11:23:10;;;;;;;3.97;0.80;;;;;;;;;;5036271;28;20040;-86
2022/07/03 11:25:43;;;;;;;4.07;0.70;;;;;;;;;;5047339;28;20045;-83
2022/07/03 11:28:28;;;;;;;4.45;0.70;;;;;;;;;;5043146;28;20048;-85
2022/07/03 11:31:24;;;;;;;6.15;0.77;;;;;;;;;;5054419;28;20029;-83
2022/07/03 11:33:56;;;;;;;4.78;0.80;;;;;;;;;;5037859;28;20491;-85
2022/07/03 11:36:25;;;;;;;3.33;0.80;;;;;;;;;;5053359;28;20053;-85
2022/07/03 11:38:54;;;;;;;4.00;0.73;;;;;;;;;;5055335;28;20049;-86
2022/07/03 11:41:20;;;;;;;2.78;0.70;;;;;;;;;;5056613;28;20442;-84
2022/07/03 11:43:49;;;;;;;2.53;0.80;;;;;;;;;;5039230;28;20040;-87
2022/07/03 11:46:26;;;;;;;2.90;0.68;;;;;;;;;;5051319;28;20049;-87
2022/07/03 11:49:11;;;;;;;2.47;0.60;;;;;;;;;;5056831;28;20487;-85
2022/07/03 11:51:37;;;;;;;2.35;0.70;;;;;;;;;;5038962;28;20048;-85
2022/07/03 11:54:04;;;;;;;3.22;0.88;;;;;;;;;;5055047;28;20045;-86
2022/07/03 11:56:30;;;;;;;3.00;0.80;;;;;;;;;;5057872;28;20048;-85
2022/07/03 11:58:57;;;;;;;3.47;0.57;;;;;;;;;;5058386;28;20407;-84
2022/07/03 12:01:23;;;;;;;3.92;0.93;;;;;;;;;;5056272;28;20052;-86
2022/07/03 12:03:49;;;;;;;4.57;0.73;;;;;;;;;;5020535;28;20037;-85
2022/07/03 12:06:15;;;;;;;5.47;0.88;;;;;;;;;;5057490;28;20076;-85
2022/07/03 12:08:45;;;;;;;3.30;0.80;;;;;;;;;;5056115;28;20052;-85
2022/07/03 12:11:12;;;;;;;2.95;0.68;;;;;;;;;;5057081;28;20044;-88
2022/07/03 12:13:38;;;;;;;2.95;0.70;;;;;;;;;;5040369;28;20094;-86
2022/07/03 12:16:10;;;;;;;3.58;0.80;;;;;;;;;;5059728;28;20125;-87
2022/07/03 12:18:46;;;;;;;3.75;0.70;;;;;;;;;;5035414;28;20036;-84
2022/07/03 12:21:12;;;;;;;2.88;0.70;;;;;;;;;;5053431;28;20067;-83
2022/07/03 12:23:55;;;;;;;3.90;0.80;;;;;;;;;;5054789;28;20087;-86
2022/07/03 12:26:34;;;;;;;2.55;0.60;;;;;;;;;;5054382;28;20049;-85
2022/07/03 12:29:05;;;;;;;3.25;0.80;;;;;;;;;;5052716;28;20048;-86
2022/07/03 12:31:31;;;;;;;3.88;0.70;;;;;;;;;;5036507;28;20048;-85
2022/07/03 12:33:58;;;;;;;3.72;0.88;;;;;;;;;;5049803;28;20044;-86
2022/07/03 12:36:24;;;;;;;3.53;0.70;;;;;;;;;;5050311;28;20037;-85
2022/07/03 12:38:54;;;;;;;2.47;0.65;;;;;;;;;;5056441;28;20060;-85
2022/07/03 12:41:20;;;;;;;3.30;0.70;;;;;;;;;;5037854;28;20047;-85
2022/07/03 12:43:48;;;;;;;4.20;0.80;;;;;;;;;;5056200;28;20399;-85
2022/07/03 12:46:17;;;;;;;3.28;1.00;;;;;;;;;;5056256;28;20044;-85
2022/07/03 12:48:49;;;;;;;4.70;0.77;;;;;;;;;;5051653;28;20049;-85
2022/07/03 12:51:15;;;;;;;2.58;0.70;;;;;;;;;;5056663;28;20491;-84
2022/07/03 12:53:54;;;;;;;3.28;0.80;;;;;;;;;;5055512;28;20059;-82
2022/07/03 12:56:20;;;;;;;2.45;0.80;;;;;;;;;;5054280;28;20464;-83
2022/07/03 13:01:37;;;;;;;1.65;0.55;;;;;;;;;;5053686;28;20053;-85
2022/07/03 13:04:04;;;;;;;3.80;0.60;;;;;;;;;;5051498;28;20056;-82
2022/07/03 13:06:30;;;;;;;2.28;0.60;;;;;;;;;;5052055;28;20411;-83
2022/07/03 13:09:01;;;;;;;3.22;0.80;;;;;;;;;;5019697;28;20484;-83
2022/07/03 13:11:34;;;;;;;2.75;0.60;;;;;;;;;;5054903;28;20127;-83
2022/07/03 13:14:11;;;;;;;3.65;0.70;;;;;;;;;;5036006;28;20052;-83
2022/07/03 13:16:38;;;;;;;1.80;0.60;;;;;;;;;;5052396;28;20055;-82
2022/07/03 13:19:08;;;;;;;3.08;0.70;;;;;;;;;;5045976;28;20041;-83
2022/07/03 13:21:34;;;;;;;3.38;0.82;;;;;;;;;;5052285;28;20414;-84
2022/07/03 13:24:00;;;;;;;3.13;0.90;;;;;;;;;;5053575;28;20049;-84
2022/07/03 13:26:27;;;;;;;3.88;0.90;;;;;;;;;;5055032;28;20403;-84
2022/07/03 13:28:53;;;;;;;4.35;1.00;;;;;;;;;;5054651;28;20083;-84
2022/07/03 13:31:19;;;;;;;8.48;0.82;;;;;;;;;;5053950;28;20119;-82
2022/07/03 13:33:48;;;;;;;2.85;0.82;;;;;;;;;;5053388;28;20044;-83
2022/07/03 13:36:16;;;;;;;2.88;0.80;;;;;;;;;;5050816;28;20510;-83
2022/07/03 13:38:42;;;;;;;4.20;1.05;;;;;;;;;;5050852;28;20403;-85
2022/07/03 13:41:09;;;;;;;2.60;0.63;;;;;;;;;;5054613;28;20071;-86
2022/07/03 13:43:35;;;;;;;3.63;0.80;;;;;;;;;;5053090;28;20037;-86
2022/07/03 13:46:01;;;;;;;3.97;1.05;;;;;;;;;;5051979;28;20037;-86
2022/07/03 13:48:27;;;;;;;4.47;1.02;;;;;;;;;;5020091;28;20053;-86
2022/07/03 13:50:53;;;;;;;3.65;0.80;;;;;;;;;;5054002;28;20072;-87
2022/07/03 13:53:19;;;;;;;3.83;0.93;;;;;;;;;;5047964;28;20038;-85
2022/07/03 13:55:45;;;;;;;5.18;0.95;;;;;;;;;;5042997;28;20050;-85
2022/07/03 13:58:13;;;;;;;3.33;0.90;;;;;;;;;;5039892;28;20395;-84
2022/07/03 14:00:39;;;;;;;5.32;1.10;;;;;;;;;;5038614;28;20045;-85
2022/07/03 14:03:05;;;;;;;5.35;1.00;;;;;;;;;;5053057;28;20112;-84
2022/07/03 14:05:31;;;;;;;5.05;1.08;;;;;;;;;;5035437;28;20206;-86
2022/07/03 14:07:57;;;;;;;2.95;0.90;;;;;;;;;;5051826;28;20052;-85
2022/07/03 14:10:25;;;;;;;4.53;0.95;;;;;;;;;;5051507;28;20044;-83
2022/07/03 14:12:51;;;;;;;4.30;0.85;;;;;;;;;;5049739;28;20060;-84
2022/07/03 14:15:18;;;;;;;3.85;1.10;;;;;;;;;;5051976;28;20045;-86
2022/07/03 14:17:44;;;;;;;4.18;0.90;;;;;;;;;;5036848;28;20402;-90
2022/07/03 14:20:11;;;;;;;2.65;0.90;;;;;;;;;;5038046;28;20048;-88
2022/07/03 14:22:37;;;;;;;14.15;2.55;;;;;;;;;;5053004;28;20046;-83
2022/07/03 14:25:03;;;;;;;10.73;1.88;;;;;;;;;;5048670;28;20076;-79
2022/07/03 14:32:59;;;;;;;5.97;0.90;;;;;;;;;;5054942;28;20053;-82
2022/07/03 14:35:26;;;;;;;3.55;0.77;;;;;;;;;;5037267;28;20045;-83
2022/07/03 14:37:52;;;;;;;2.65;0.73;;;;;;;;;;5034306;28;20511;-83
2022/07/03 14:40:18;;;;;;;3.40;0.95;;;;;;;;;;5040997;28;20056;-82
2022/07/03 14:42:44;;;;;;;2.83;0.90;;;;;;;;;;5041250;28;20046;-82
2022/07/03 14:45:10;;;;;;;5.32;1.35;;;;;;;;;;5048226;28;20040;-82
2022/07/03 14:47:37;;;;;;;3.40;1.23;;;;;;;;;;5049515;28;20033;-82
2022/07/03 14:50:03;;;;;;;3.60;1.00;;;;;;;;;;5035723;28;20045;-83
2022/07/03 14:52:29;;;;;;;2.92;1.00;;;;;;;;;;5050662;28;20059;-83
2022/07/03 14:54:57;;;;;;;4.45;1.05;;;;;;;;;;5019668;28;20037;-84
2022/07/03 14:57:41;;;;;;;5.68;2.35;;;;;;;;;;5041033;28;20037;-84
2022/07/03 15:00:13;;;;;;;5.25;3.03;;;;;;;;;;5044635;28;20055;-84
2022/07/03 15:02:49;;;;;;;7.13;5.18;;;;;;;;;;5051760;28;20427;-85
2022/07/03 15:05:16;;;;;;;5.07;2.10;;;;;;;;;;5056420;28;20048;-86
2022/07/03 15:07:43;;;;;;;4.70;1.70;;;;;;;;;;5040931;28;20099;-86
2022/07/03 15:10:15;;;;;;;4.78;2.50;;;;;;;;;;5056211;28;20041;-86